Terminal Aerodrome Forecast
Issued by NWS Wilmington, NC

Home | Current Version | Previous Version | Text Only | Print | Product List | Glossary On
Versions: 1 2 3 4 5 6 7 8 9 10 11 12 13 14
263
FTUS42 KILM 072320
TAFLBT
TAF
KLBT 072320Z 0800/0824 02004KT P6SM SKC
     FM080600 00000KT 4SM BR BKN020
     FM081100 22002KT 2SM BR OVC020
     FM081300 26007KT P6SM BKN020=

USA.gov is the U.S. government's official web portal to all federal, state and local government web resources and services.